createdAt,value
2023-03-29T00:01:35.546Z,3.43
2023-03-29T00:04:04.401Z,3.40
2023-03-29T00:06:32.336Z,3.97
2023-03-29T00:08:59.285Z,3.70
2023-03-29T00:11:26.112Z,3.60
2023-03-29T00:13:52.602Z,3.60
2023-03-29T00:16:19.514Z,7.03
2023-03-29T00:18:45.950Z,6.80
2023-03-29T00:21:12.417Z,5.10
2023-03-29T00:23:38.882Z,4.80
2023-03-29T00:26:08.507Z,4.37
2023-03-29T00:28:35.223Z,2.77
2023-03-29T00:31:08.851Z,3.97
2023-03-29T00:33:35.801Z,4.03
2023-03-29T00:36:02.362Z,6.13
2023-03-29T00:38:29.022Z,4.30
2023-03-29T00:40:55.701Z,3.10
2023-03-29T00:43:22.392Z,4.37
2023-03-29T00:45:48.894Z,6.97
2023-03-29T00:48:21.293Z,3.13
2023-03-29T00:50:54.000Z,5.37
2023-03-29T00:53:27.339Z,3.77
2023-03-29T00:55:59.626Z,4.07
2023-03-29T00:58:32.749Z,5.97
2023-03-29T01:01:02.634Z,5.20
2023-03-29T01:03:33.113Z,5.63
2023-03-29T01:06:01.778Z,4.63
2023-03-29T01:08:40.651Z,4.67
2023-03-29T01:11:26.618Z,4.20
2023-03-29T01:13:58.978Z,5.27
2023-03-29T01:16:28.714Z,9.07
2023-03-29T01:18:58.766Z,4.90
2023-03-29T01:21:29.351Z,6.93
2023-03-29T01:24:07.236Z,4.60
2023-03-29T01:26:53.740Z,5.03
2023-03-29T01:29:26.451Z,4.87
2023-03-29T01:32:13.282Z,4.07
2023-03-29T01:34:42.944Z,6.10
2023-03-29T01:37:24.791Z,5.63
2023-03-29T01:39:52.319Z,5.90
2023-03-29T01:42:41.656Z,5.57
2023-03-29T01:45:17.044Z,5.17
2023-03-29T01:47:51.655Z,4.77
2023-03-29T01:50:19.495Z,5.80
2023-03-29T01:52:53.460Z,3.50
2023-03-29T01:55:24.679Z,5.37
2023-03-29T01:57:52.254Z,5.50
2023-03-29T02:00:20.939Z,5.27
2023-03-29T02:02:48.850Z,4.30
2023-03-29T02:05:16.620Z,4.57
2023-03-29T02:07:44.761Z,5.10
2023-03-29T02:10:11.482Z,7.47
2023-03-29T02:12:38.172Z,7.17
2023-03-29T02:15:07.108Z,7.03
2023-03-29T02:17:33.623Z,4.27
2023-03-29T02:20:03.433Z,6.07
2023-03-29T02:22:42.173Z,5.67
2023-03-29T02:25:09.454Z,5.87
2023-03-29T02:27:38.088Z,5.23
2023-03-29T02:30:06.573Z,9.27
2023-03-29T02:33:02.585Z,5.10
2023-03-29T02:35:38.521Z,4.57
2023-03-29T02:38:07.781Z,8.80
2023-03-29T02:40:34.840Z,5.50
2023-03-29T02:43:02.060Z,6.47
2023-03-29T02:45:29.177Z,6.47
2023-03-29T02:47:57.454Z,6.33
2023-03-29T02:50:28.590Z,3.43
2023-03-29T02:52:59.294Z,6.60
2023-03-29T02:55:31.364Z,7.70
2023-03-29T02:57:57.955Z,4.97
2023-03-29T03:00:24.475Z,5.50
2023-03-29T03:02:52.242Z,6.77
2023-03-29T03:05:19.413Z,7.40
2023-03-29T03:07:47.087Z,6.53
2023-03-29T03:10:13.783Z,7.33
2023-03-29T03:12:40.180Z,9.33
2023-03-29T03:15:08.246Z,7.93
2023-03-29T03:17:40.163Z,5.67
2023-03-29T03:20:11.048Z,8.83
2023-03-29T03:22:38.240Z,4.33
2023-03-29T03:25:06.139Z,6.90
2023-03-29T03:27:34.053Z,4.77
2023-03-29T03:30:00.497Z,5.70
2023-03-29T03:32:27.198Z,6.63
2023-03-29T03:34:53.811Z,6.37
2023-03-29T03:37:20.318Z,6.07
2023-03-29T03:39:46.906Z,4.97
2023-03-29T03:42:13.360Z,7.20
2023-03-29T03:44:40.930Z,6.93
2023-03-29T03:47:07.878Z,9.27
2023-03-29T03:49:34.323Z,5.93
2023-03-29T03:52:00.966Z,5.50
2023-03-29T03:54:27.552Z,6.93
2023-03-29T03:56:54.278Z,5.43
2023-03-29T03:59:20.766Z,5.13
2023-03-29T04:01:47.197Z,6.20
2023-03-29T04:04:14.901Z,6.83
2023-03-29T04:06:43.680Z,8.03
2023-03-29T04:09:10.354Z,7.57
2023-03-29T04:11:38.008Z,9.17
2023-03-29T04:14:05.546Z,7.53
2023-03-29T04:16:31.934Z,7.93
2023-03-29T04:18:58.449Z,6.43
2023-03-29T04:21:24.954Z,8.93
2023-03-29T04:23:51.321Z,5.70
2023-03-29T04:26:18.088Z,5.23
2023-03-29T04:28:44.639Z,7.00
2023-03-29T04:31:12.355Z,7.43
2023-03-29T04:33:38.904Z,7.87
2023-03-29T04:36:06.112Z,6.63
2023-03-29T04:38:36.126Z,7.30
2023-03-29T04:41:04.936Z,6.53
2023-03-29T04:43:31.400Z,7.77
2023-03-29T04:45:58.496Z,5.37
2023-03-29T04:48:25.767Z,6.73
2023-03-29T04:50:54.207Z,6.70
2023-03-29T04:53:21.173Z,6.47
2023-03-29T04:55:47.860Z,11.07
2023-03-29T04:58:14.471Z,6.93
2023-03-29T05:00:41.044Z,5.27
2023-03-29T05:03:07.544Z,4.53
2023-03-29T05:05:34.066Z,7.03
2023-03-29T05:08:00.431Z,7.10
2023-03-29T05:10:27.203Z,7.70
2023-03-29T05:12:54.200Z,5.97
2023-03-29T05:15:21.359Z,7.03
2023-03-29T05:17:51.240Z,6.63
2023-03-29T05:20:17.755Z,5.47
2023-03-29T05:22:44.253Z,8.43
2023-03-29T05:25:11.870Z,5.47
2023-03-29T05:27:38.338Z,8.40
2023-03-29T05:30:04.985Z,8.37
2023-03-29T05:32:31.465Z,7.87
2023-03-29T05:34:57.867Z,6.40
2023-03-29T05:37:24.244Z,8.20
2023-03-29T05:39:50.646Z,7.67
2023-03-29T05:42:19.400Z,7.30
2023-03-29T05:44:45.886Z,12.23
2023-03-29T05:47:12.287Z,6.40
2023-03-29T05:49:38.653Z,8.10
2023-03-29T05:52:06.754Z,9.37
2023-03-29T05:54:33.420Z,10.57
2023-03-29T05:56:59.843Z,6.40
2023-03-29T05:59:28.684Z,7.43
2023-03-29T06:01:55.566Z,7.00
2023-03-29T06:04:22.339Z,6.00
2023-03-29T06:06:48.924Z,5.70
2023-03-29T06:09:15.592Z,8.33
2023-03-29T06:11:41.978Z,7.70
2023-03-29T06:14:08.444Z,6.70
2023-03-29T06:16:35.075Z,8.07
2023-03-29T06:19:01.594Z,5.73
2023-03-29T06:21:28.536Z,8.93
2023-03-29T06:23:55.095Z,8.03
2023-03-29T06:26:23.039Z,7.47
2023-03-29T06:28:51.953Z,8.37
2023-03-29T06:31:19.938Z,7.97
2023-03-29T06:33:46.986Z,6.50
2023-03-29T06:36:16.053Z,7.00
2023-03-29T06:38:43.054Z,8.27
2023-03-29T06:41:12.933Z,8.13
2023-03-29T06:43:40.520Z,7.63
2023-03-29T06:46:12.330Z,9.97
2023-03-29T06:48:39.372Z,10.87
2023-03-29T06:51:07.618Z,8.27
2023-03-29T06:53:34.657Z,9.13
2023-03-29T06:56:05.327Z,8.00
2023-03-29T06:58:31.863Z,8.23
2023-03-29T07:01:04.753Z,8.40
2023-03-29T07:03:31.626Z,10.97
2023-03-29T07:06:04.023Z,8.40
2023-03-29T07:08:31.680Z,6.27
2023-03-29T07:10:59.435Z,9.23
2023-03-29T07:13:27.695Z,9.53
2023-03-29T07:15:54.162Z,12.43
2023-03-29T07:18:21.029Z,9.30
2023-03-29T07:20:48.535Z,10.33
2023-03-29T07:23:16.700Z,9.67
2023-03-29T07:25:43.113Z,9.47
2023-03-29T07:28:09.566Z,11.43
2023-03-29T07:30:37.200Z,10.60
2023-03-29T07:33:04.472Z,12.03
2023-03-29T07:35:32.853Z,9.27
2023-03-29T07:37:59.514Z,12.57
2023-03-29T07:40:27.479Z,10.07
2023-03-29T07:42:54.933Z,18.77
2023-03-29T07:45:26.637Z,11.33
2023-03-29T07:47:56.264Z,13.73
2023-03-29T07:50:23.238Z,9.43
2023-03-29T07:52:50.129Z,11.17
2023-03-29T07:55:17.022Z,9.50
2023-03-29T07:57:44.223Z,11.27
2023-03-29T08:00:13.162Z,13.13
2023-03-29T08:02:41.112Z,12.53
2023-03-29T08:05:07.801Z,10.43
2023-03-29T08:07:34.258Z,17.17
2023-03-29T08:10:00.739Z,20.50
2023-03-29T08:12:27.329Z,20.87
2023-03-29T08:14:53.947Z,17.30
2023-03-29T08:17:20.400Z,18.27
2023-03-29T08:19:51.294Z,13.97
2023-03-29T08:22:18.542Z,21.67
2023-03-29T08:24:44.931Z,14.60
2023-03-29T08:27:11.312Z,16.70
2023-03-29T08:29:37.817Z,20.33
2023-03-29T08:32:04.457Z,17.50
2023-03-29T08:34:31.971Z,12.50
2023-03-29T08:36:59.217Z,19.50
2023-03-29T08:39:25.730Z,19.23
2023-03-29T08:42:02.639Z,20.17
2023-03-29T08:44:39.728Z,21.77
2023-03-29T08:47:09.157Z,27.73
2023-03-29T08:49:38.025Z,24.50
2023-03-29T08:52:06.491Z,20.53
2023-03-29T08:54:42.620Z,23.10
2023-03-29T08:57:29.404Z,26.40
2023-03-29T08:59:57.965Z,24.47
2023-03-29T09:02:26.243Z,23.07
2023-03-29T09:04:57.054Z,24.97
2023-03-29T09:07:25.960Z,27.97
2023-03-29T09:09:53.487Z,31.43
2023-03-29T09:12:26.823Z,27.43
2023-03-29T09:14:53.184Z,29.73
2023-03-29T09:17:28.836Z,25.00
2023-03-29T09:20:00.625Z,27.83
2023-03-29T09:22:37.605Z,28.23
2023-03-29T09:25:04.151Z,27.50
2023-03-29T09:27:36.397Z,29.37
2023-03-29T09:30:04.751Z,23.90
2023-03-29T09:32:34.552Z,22.97
2023-03-29T09:35:10.400Z,25.43
2023-03-29T09:37:39.645Z,33.37
2023-03-29T09:40:14.618Z,24.77
2023-03-29T09:42:41.637Z,28.07
2023-03-29T09:45:08.725Z,24.23
2023-03-29T09:47:47.779Z,29.00
2023-03-29T09:50:30.172Z,28.27
2023-03-29T09:52:57.247Z,26.13
2023-03-29T09:55:27.307Z,28.47
2023-03-29T09:57:54.089Z,26.10
2023-03-29T10:00:20.828Z,27.73
2023-03-29T10:02:51.322Z,27.87
2023-03-29T10:05:18.123Z,28.13
2023-03-29T10:07:50.850Z,27.87
2023-03-29T10:10:25.323Z,23.67
2023-03-29T10:12:53.988Z,25.63
2023-03-29T10:15:29.157Z,25.97
2023-03-29T10:18:00.867Z,23.87
2023-03-29T10:20:27.548Z,22.50
2023-03-29T10:22:58.413Z,23.80
2023-03-29T10:25:30.196Z,24.97
2023-03-29T10:28:17.566Z,21.77
2023-03-29T10:30:45.919Z,22.83
2023-03-29T10:33:18.324Z,22.37
2023-03-29T10:35:44.976Z,22.80
2023-03-29T10:38:14.843Z,21.70
2023-03-29T10:40:45.833Z,20.93
2023-03-29T10:43:14.647Z,32.47
2023-03-29T10:45:41.480Z,20.77
2023-03-29T10:48:15.367Z,19.13
2023-03-29T10:50:45.529Z,25.83
2023-03-29T10:53:23.949Z,19.10
2023-03-29T10:56:06.881Z,22.63
2023-03-29T10:58:42.739Z,20.37
2023-03-29T11:01:15.141Z,21.33
2023-03-29T11:03:44.789Z,19.07
2023-03-29T11:06:11.275Z,21.53
2023-03-29T11:08:56.352Z,21.70
2023-03-29T11:11:44.169Z,21.13
2023-03-29T11:14:17.187Z,18.77
2023-03-29T11:16:54.704Z,20.97
2023-03-29T11:19:29.287Z,19.83
2023-03-29T11:22:06.827Z,23.17
2023-03-29T11:24:34.888Z,20.07
2023-03-29T11:27:23.258Z,17.57
2023-03-29T11:29:58.779Z,16.87
2023-03-29T11:32:34.189Z,21.33
2023-03-29T11:35:03.629Z,18.70
2023-03-29T11:37:36.533Z,17.97
2023-03-29T11:40:27.222Z,21.80
2023-03-29T11:42:55.405Z,16.23
2023-03-29T11:46:00.963Z,17.90
2023-03-29T11:48:30.388Z,21.40
2023-03-29T11:51:17.064Z,20.67
2023-03-29T11:53:53.463Z,20.27
2023-03-29T11:56:24.673Z,23.33
2023-03-29T11:58:53.807Z,18.77
2023-03-29T12:01:37.896Z,21.87
2023-03-29T12:04:11.404Z,18.07
2023-03-29T12:06:44.600Z,18.70
2023-03-29T12:09:16.887Z,20.00
2023-03-29T12:11:54.431Z,21.60
2023-03-29T12:14:25.470Z,23.67
2023-03-29T12:17:01.026Z,21.60
2023-03-29T12:19:30.734Z,19.90
2023-03-29T12:21:57.965Z,17.33
2023-03-29T12:24:25.908Z,15.63
2023-03-29T12:27:11.771Z,16.47
2023-03-29T12:29:41.099Z,16.43
2023-03-29T12:32:26.177Z,19.07
2023-03-29T12:35:01.941Z,17.87
2023-03-29T12:37:36.062Z,14.17
2023-03-29T12:40:05.297Z,15.23
2023-03-29T12:42:31.782Z,17.80
2023-03-29T12:44:59.176Z,18.90
2023-03-29T12:47:27.740Z,18.77
2023-03-29T12:49:56.168Z,16.57
2023-03-29T12:52:33.872Z,17.50
2023-03-29T12:55:02.103Z,18.60
2023-03-29T12:57:42.434Z,16.63
2023-03-29T13:00:23.760Z,16.10
2023-03-29T13:03:00.459Z,17.03
2023-03-29T13:05:31.497Z,15.90
2023-03-29T13:07:57.985Z,15.37
2023-03-29T13:10:41.435Z,15.93
2023-03-29T13:13:11.173Z,16.30
2023-03-29T13:15:37.890Z,14.57
2023-03-29T13:18:19.622Z,13.83
2023-03-29T13:20:47.870Z,14.07
2023-03-29T13:23:17.743Z,12.00
2023-03-29T13:25:47.585Z,17.47
2023-03-29T13:28:32.778Z,13.37
2023-03-29T13:31:06.452Z,14.33
2023-03-29T13:33:58.550Z,14.13
2023-03-29T13:36:24.951Z,14.43
2023-03-29T13:38:53.411Z,13.33
2023-03-29T13:41:43.241Z,16.00
2023-03-29T13:44:22.214Z,16.57
2023-03-29T13:46:49.754Z,13.70
2023-03-29T13:49:20.885Z,16.43
2023-03-29T13:51:53.510Z,20.63
2023-03-29T13:54:36.720Z,14.80
2023-03-29T13:57:03.247Z,17.47
2023-03-29T13:59:45.259Z,12.00
2023-03-29T14:02:16.986Z,14.37
2023-03-29T14:04:46.793Z,14.30
2023-03-29T14:07:14.652Z,12.97
2023-03-29T14:09:44.042Z,13.67
2023-03-29T14:12:14.647Z,12.17
2023-03-29T14:14:57.666Z,12.93
2023-03-29T14:17:25.712Z,13.13
2023-03-29T14:19:52.189Z,11.77
2023-03-29T14:22:21.902Z,10.93
2023-03-29T14:24:51.646Z,14.47
2023-03-29T14:27:19.133Z,9.80
2023-03-29T14:29:49.705Z,11.47
2023-03-29T14:32:19.375Z,9.43
2023-03-29T14:34:50.866Z,10.30
2023-03-29T14:37:21.813Z,10.53
2023-03-29T14:39:51.389Z,9.13
2023-03-29T14:42:23.329Z,13.37
2023-03-29T14:44:50.337Z,11.23
2023-03-29T14:47:27.393Z,10.27
2023-03-29T14:49:56.149Z,12.27
2023-03-29T14:52:23.570Z,14.17
2023-03-29T14:54:54.060Z,12.17
2023-03-29T14:57:23.542Z,12.90
2023-03-29T14:59:54.801Z,11.70
2023-03-29T15:02:24.260Z,13.13
2023-03-29T15:05:03.598Z,18.07
2023-03-29T15:07:31.145Z,14.70
2023-03-29T15:09:58.602Z,15.17
2023-03-29T15:12:25.561Z,15.67
2023-03-29T15:14:52.876Z,18.63
2023-03-29T15:17:52.238Z,14.47
2023-03-29T15:20:23.381Z,14.57
2023-03-29T15:22:54.800Z,20.03
2023-03-29T15:25:21.312Z,12.90
2023-03-29T15:27:50.189Z,15.90
2023-03-29T15:30:17.741Z,15.37
2023-03-29T15:32:46.832Z,12.30
2023-03-29T15:35:25.768Z,15.47
2023-03-29T15:37:53.312Z,13.87
2023-03-29T15:40:23.578Z,15.23
2023-03-29T15:42:50.806Z,11.87
2023-03-29T15:45:18.251Z,15.83
2023-03-29T15:47:45.055Z,14.40
2023-03-29T15:50:11.556Z,16.13
2023-03-29T15:52:38.553Z,15.67
2023-03-29T15:55:06.218Z,14.07
2023-03-29T15:57:32.799Z,13.87
2023-03-29T15:59:59.346Z,15.63
2023-03-29T16:02:25.944Z,13.33
2023-03-29T16:04:53.518Z,13.87
2023-03-29T16:07:20.988Z,12.00
2023-03-29T16:09:47.475Z,14.67
2023-03-29T16:12:16.147Z,13.27
2023-03-29T16:14:43.260Z,10.40
2023-03-29T16:17:09.942Z,10.03
2023-03-29T16:19:36.426Z,12.97
2023-03-29T16:22:08.504Z,11.33
2023-03-29T16:24:36.585Z,10.17
2023-03-29T16:27:03.144Z,10.10
2023-03-29T16:29:29.848Z,10.10
2023-03-29T16:31:56.469Z,14.20
2023-03-29T16:34:22.927Z,8.77
2023-03-29T16:36:50.765Z,9.33
2023-03-29T16:39:18.317Z,10.50
2023-03-29T16:41:46.879Z,10.03
2023-03-29T16:44:15.462Z,8.20
2023-03-29T16:46:42.170Z,8.30
2023-03-29T16:49:13.971Z,10.33
2023-03-29T16:51:40.484Z,8.37
2023-03-29T16:54:07.729Z,10.77
2023-03-29T16:56:36.775Z,9.83
2023-03-29T16:59:03.743Z,10.17
2023-03-29T17:01:30.301Z,9.87
2023-03-29T17:03:57.213Z,10.83
2023-03-29T17:06:23.788Z,9.07
2023-03-29T17:08:50.584Z,8.60
2023-03-29T17:11:17.529Z,9.07
2023-03-29T17:13:44.559Z,6.20
2023-03-29T17:16:11.196Z,7.30
2023-03-29T17:18:37.925Z,10.30
2023-03-29T17:21:04.451Z,7.97
2023-03-29T17:23:30.867Z,6.70
2023-03-29T17:25:57.323Z,7.77
2023-03-29T17:28:23.798Z,6.03
2023-03-29T17:30:50.462Z,8.03
2023-03-29T17:33:19.185Z,5.83
2023-03-29T17:35:48.583Z,6.80
2023-03-29T17:38:14.989Z,5.97
2023-03-29T17:40:41.846Z,6.20
2023-03-29T17:43:08.277Z,7.97
2023-03-29T17:45:35.505Z,11.20
2023-03-29T17:48:04.091Z,14.50
2023-03-29T17:50:32.174Z,7.43
2023-03-29T17:52:58.705Z,7.47
2023-03-29T17:55:26.475Z,8.07
2023-03-29T17:57:54.434Z,6.67
2023-03-29T18:00:21.090Z,6.73
2023-03-29T18:02:47.645Z,8.67
2023-03-29T18:05:14.205Z,9.50
2023-03-29T18:07:40.707Z,6.03
2023-03-29T18:10:07.857Z,6.80
2023-03-29T18:12:34.285Z,4.83
2023-03-29T18:15:01.123Z,9.50
2023-03-29T18:17:28.613Z,7.70
2023-03-29T18:19:55.004Z,6.17
2023-03-29T18:22:21.705Z,8.87
2023-03-29T18:24:54.912Z,6.13
2023-03-29T18:27:21.689Z,9.27
2023-03-29T18:29:48.137Z,7.50
2023-03-29T18:32:15.847Z,7.13
2023-03-29T18:34:42.310Z,9.90
2023-03-29T18:37:14.600Z,11.63
2023-03-29T18:39:41.600Z,9.53
2023-03-29T18:42:09.728Z,10.23
2023-03-29T18:44:38.091Z,9.63
2023-03-29T18:47:04.666Z,8.50
2023-03-29T18:49:31.224Z,9.30
2023-03-29T18:51:57.818Z,10.40
2023-03-29T18:54:24.234Z,9.10
2023-03-29T18:56:51.638Z,8.57
2023-03-29T18:59:18.375Z,8.37
2023-03-29T19:01:45.312Z,9.97
2023-03-29T19:04:13.456Z,10.67
2023-03-29T19:06:41.740Z,9.80
2023-03-29T19:09:08.416Z,9.27
2023-03-29T19:11:36.070Z,8.30
2023-03-29T19:14:05.927Z,10.17
2023-03-29T19:16:32.496Z,12.47
2023-03-29T19:18:58.890Z,13.20
2023-03-29T19:21:25.387Z,10.10
2023-03-29T19:23:52.947Z,9.67
2023-03-29T19:26:19.563Z,11.03
2023-03-29T19:28:46.076Z,8.30
2023-03-29T19:31:12.649Z,10.70
2023-03-29T19:33:39.672Z,9.00
2023-03-29T19:36:06.638Z,9.73
2023-03-29T19:38:34.679Z,8.57
2023-03-29T19:41:02.427Z,7.67
2023-03-29T19:43:29.032Z,10.17
2023-03-29T19:45:55.482Z,9.37
2023-03-29T19:48:24.039Z,12.10
2023-03-29T19:50:51.496Z,10.40
2023-03-29T19:53:19.378Z,9.93
2023-03-29T19:55:46.028Z,10.70
2023-03-29T19:58:12.669Z,11.27
2023-03-29T20:00:39.271Z,9.97
2023-03-29T20:03:10.160Z,8.47
2023-03-29T20:05:39.346Z,10.10
2023-03-29T20:08:06.596Z,10.80
2023-03-29T20:10:34.017Z,13.17
2023-03-29T20:13:00.541Z,10.23
2023-03-29T20:15:27.021Z,11.87
2023-03-29T20:17:55.321Z,8.90
2023-03-29T20:20:24.614Z,11.17
2023-03-29T20:22:54.107Z,12.93
2023-03-29T20:25:21.260Z,12.57
2023-03-29T20:27:49.771Z,9.90
2023-03-29T20:30:17.195Z,9.57
2023-03-29T20:32:44.903Z,10.77
2023-03-29T20:35:11.716Z,11.30
2023-03-29T20:37:39.164Z,16.17
2023-03-29T20:40:06.652Z,22.10
2023-03-29T20:42:34.622Z,62.23
2023-03-29T20:45:01.428Z,136.87
2023-03-29T20:47:29.434Z,54.93
2023-03-29T20:49:56.813Z,28.23
2023-03-29T20:52:23.885Z,28.07
2023-03-29T20:54:50.660Z,13.97
2023-03-29T20:57:19.166Z,24.57
2023-03-29T20:59:46.076Z,20.03
2023-03-29T21:02:19.015Z,17.60
2023-03-29T21:04:49.836Z,15.70
2023-03-29T21:07:17.196Z,13.57
2023-03-29T21:09:43.697Z,10.53
2023-03-29T21:12:10.254Z,12.30
2023-03-29T21:14:36.753Z,10.77
2023-03-29T21:17:03.171Z,14.03
2023-03-29T21:19:29.706Z,12.27
2023-03-29T21:21:56.147Z,12.90
2023-03-29T21:24:22.686Z,13.17
2023-03-29T21:26:49.131Z,13.60
2023-03-29T21:29:15.951Z,12.83
2023-03-29T21:31:42.418Z,13.90
2023-03-29T21:34:09.042Z,13.40
2023-03-29T21:36:35.793Z,13.53
2023-03-29T21:39:02.210Z,12.77
2023-03-29T21:41:28.643Z,13.27
2023-03-29T21:43:55.269Z,9.63
2023-03-29T21:46:21.774Z,11.67
2023-03-29T21:48:48.247Z,12.37
2023-03-29T21:51:14.887Z,12.23
2023-03-29T21:53:41.522Z,10.43
2023-03-29T21:56:08.465Z,12.33
2023-03-29T21:58:34.919Z,11.47
2023-03-29T22:01:03.778Z,10.53
2023-03-29T22:03:30.848Z,14.63
2023-03-29T22:05:57.248Z,9.40
2023-03-29T22:08:26.588Z,11.13
2023-03-29T22:10:56.654Z,8.13
2023-03-29T22:13:24.279Z,7.87
2023-03-29T22:15:59.159Z,5.50
2023-03-29T22:18:28.048Z,10.80
2023-03-29T22:20:55.980Z,6.67
2023-03-29T22:23:24.938Z,6.23
2023-03-29T22:25:52.521Z,8.63
2023-03-29T22:28:22.358Z,8.07
2023-03-29T22:30:48.950Z,12.83
2023-03-29T22:33:15.928Z,11.00
2023-03-29T22:35:42.347Z,7.33
2023-03-29T22:38:10.128Z,6.33
2023-03-29T22:40:39.509Z,8.87
2023-03-29T22:43:05.914Z,8.37
2023-03-29T22:45:32.365Z,10.70
2023-03-29T22:47:58.826Z,5.53
2023-03-29T22:50:25.405Z,5.17
2023-03-29T22:52:51.860Z,5.30
2023-03-29T22:55:18.281Z,6.77
2023-03-29T22:57:44.842Z,4.23
2023-03-29T23:00:13.246Z,7.80
2023-03-29T23:02:39.906Z,5.17
2023-03-29T23:05:06.924Z,8.87
2023-03-29T23:07:36.479Z,6.43
2023-03-29T23:10:06.916Z,8.30
2023-03-29T23:12:36.203Z,5.07
2023-03-29T23:15:06.353Z,5.37
2023-03-29T23:17:32.783Z,5.83
2023-03-29T23:19:59.244Z,5.80
2023-03-29T23:22:27.680Z,8.07
2023-03-29T23:24:54.119Z,6.47
2023-03-29T23:27:20.495Z,7.17
2023-03-29T23:29:50.388Z,6.77
2023-03-29T23:32:16.879Z,10.13
2023-03-29T23:34:43.313Z,5.27
2023-03-29T23:37:09.794Z,3.63
2023-03-29T23:39:36.253Z,3.97
2023-03-29T23:42:03.482Z,5.10
2023-03-29T23:44:30.659Z,5.50
2023-03-29T23:46:57.220Z,6.33
2023-03-29T23:49:24.113Z,6.43
2023-03-29T23:51:54.689Z,4.33
2023-03-29T23:54:23.368Z,8.80
2023-03-29T23:56:50.055Z,5.90
2023-03-29T23:59:16.862Z,5.30
